createdAt,value
2023-01-01T00:00:03.598Z,1008.86
2023-01-01T00:05:03.217Z,1008.95
2023-01-01T00:10:03.329Z,1009.05
2023-01-01T00:15:03.155Z,1009.05
2023-01-01T00:20:03.271Z,1009.08
2023-01-01T00:25:03.240Z,1009.17
2023-01-01T00:30:03.228Z,1009.22
2023-01-01T00:35:03.182Z,1009.33
2023-01-01T00:40:03.381Z,1009.36
2023-01-01T00:45:03.190Z,1009.41
2023-01-01T00:50:03.411Z,1009.43
2023-01-01T00:55:03.169Z,1009.41
2023-01-01T01:00:03.301Z,1009.48
2023-01-01T01:05:03.160Z,1009.53
2023-01-01T01:10:03.436Z,1009.53
2023-01-01T01:15:03.201Z,1009.61
2023-01-01T01:20:03.379Z,1009.68
2023-01-01T01:25:03.365Z,1009.82
2023-01-01T01:30:03.275Z,1009.82
2023-01-01T01:35:03.157Z,1009.83
2023-01-01T01:40:08.297Z,1009.81
2023-01-01T01:45:03.261Z,1009.86
2023-01-01T01:50:08.385Z,1009.9
2023-01-01T01:55:03.224Z,1009.97
2023-01-01T02:00:08.816Z,1010.1
2023-01-01T02:05:03.280Z,1010.09
2023-01-01T02:10:03.279Z,1010.14
2023-01-01T02:15:03.246Z,1010.17
2023-01-01T02:20:03.302Z,1010.15
2023-01-01T02:25:03.208Z,1010.18
2023-01-01T02:30:03.268Z,1010.19
2023-01-01T02:35:03.224Z,1010.23
2023-01-01T02:40:03.336Z,1010.22
2023-01-01T02:45:03.383Z,1010.25
2023-01-01T02:50:03.232Z,1010.26
2023-01-01T02:55:03.165Z,1010.21
2023-01-01T03:00:03.340Z,1010.22
2023-01-01T03:05:03.256Z,1010.22
2023-01-01T03:10:03.280Z,1010.18
2023-01-01T03:15:03.212Z,1010.07
2023-01-01T03:20:03.320Z,1010.0
2023-01-01T03:25:03.118Z,1009.98
2023-01-01T03:30:03.340Z,1009.93
2023-01-01T03:35:03.149Z,1009.91
2023-01-01T03:40:03.282Z,1009.87
2023-01-01T03:45:03.287Z,1009.85
2023-01-01T03:50:03.433Z,1009.84
2023-01-01T03:55:03.178Z,1009.79
2023-01-01T04:00:03.309Z,1009.83
2023-01-01T04:05:03.181Z,1009.82
2023-01-01T04:10:04.089Z,1009.87
2023-01-01T04:15:03.135Z,1009.84
2023-01-01T04:20:03.409Z,1009.8
2023-01-01T04:25:03.129Z,1009.63
2023-01-01T04:30:03.276Z,1009.63
2023-01-01T04:35:03.233Z,1009.62
2023-01-01T04:40:03.378Z,1009.63
2023-01-01T04:45:03.149Z,1009.65
2023-01-01T04:50:03.234Z,1009.64
2023-01-01T04:55:03.248Z,1009.62
2023-01-01T05:00:03.249Z,1009.58
2023-01-01T05:05:03.227Z,1009.53
2023-01-01T05:10:03.390Z,1009.49
2023-01-01T05:15:08.421Z,1009.45
2023-01-01T05:20:03.246Z,1009.46
2023-01-01T05:25:03.260Z,1009.49
2023-01-01T05:30:03.270Z,1009.49
2023-01-01T05:35:03.145Z,1009.54
2023-01-01T05:40:03.446Z,1009.55
2023-01-01T05:45:03.166Z,1009.53
2023-01-01T05:55:03.214Z,1009.46
2023-01-01T06:00:03.234Z,1009.47
2023-01-01T06:05:03.222Z,1009.51
2023-01-01T06:10:03.330Z,1009.47
2023-01-01T06:15:03.185Z,1009.44
2023-01-01T06:20:03.267Z,1009.45
2023-01-01T06:25:03.233Z,1009.41
2023-01-01T06:30:03.408Z,1009.41
2023-01-01T06:35:03.226Z,1009.39
2023-01-01T06:40:03.302Z,1009.35
2023-01-01T06:45:03.147Z,1009.27
2023-01-01T06:50:03.235Z,1009.25
2023-01-01T06:55:03.214Z,1009.26
2023-01-01T07:00:03.473Z,1009.27
2023-01-01T07:05:03.187Z,1009.29
2023-01-01T07:10:03.219Z,1009.36
2023-01-01T07:15:03.143Z,1009.36
2023-01-01T07:20:03.249Z,1009.47
2023-01-01T07:25:03.121Z,1009.49
2023-01-01T07:30:03.363Z,1009.44
2023-01-01T07:35:03.101Z,1009.46
2023-01-01T07:40:03.230Z,1009.59
2023-01-01T07:45:03.145Z,1009.56
2023-01-01T07:50:03.420Z,1009.71
2023-01-01T07:55:03.150Z,1009.81
2023-01-01T08:00:03.285Z,1009.86
2023-01-01T08:05:03.282Z,1009.91
2023-01-01T08:10:03.405Z,1009.91
2023-01-01T08:15:03.157Z,1009.92
2023-01-01T08:20:03.314Z,1009.96
2023-01-01T08:25:03.158Z,1009.97
2023-01-01T08:30:03.242Z,1010.01
2023-01-01T08:35:03.374Z,1010.07
2023-01-01T08:40:03.263Z,1010.09
2023-01-01T08:45:08.177Z,1010.12
2023-01-01T08:50:03.293Z,1010.26
2023-01-01T08:56:08.151Z,1010.33
2023-01-01T09:00:03.234Z,1010.36
2023-01-01T09:05:03.175Z,1010.33
2023-01-01T09:10:03.187Z,1010.26
2023-01-01T09:15:03.152Z,1010.26
2023-01-01T09:20:03.201Z,1010.34
2023-01-01T09:25:03.314Z,1010.39
2023-01-01T09:30:03.207Z,1010.47
2023-01-01T09:35:03.344Z,1010.61
2023-01-01T09:40:03.495Z,1010.66
2023-01-01T09:45:03.221Z,1010.8
2023-01-01T09:50:03.280Z,1010.89
2023-01-01T09:55:03.135Z,1010.96
2023-01-01T10:01:08.418Z,1011.05
2023-01-01T10:05:04.197Z,1011.11
2023-01-01T10:10:03.474Z,1011.22
2023-01-01T10:15:03.132Z,1011.21
2023-01-01T10:20:06.892Z,1011.27
2023-01-01T10:25:03.152Z,1011.31
2023-01-01T10:30:04.875Z,1011.32
2023-01-01T10:35:03.177Z,1011.37
2023-01-01T10:40:03.239Z,1011.45
2023-01-01T10:45:03.163Z,1011.53
2023-01-01T10:50:18.709Z,1011.57
2023-01-01T10:55:03.184Z,1011.61
2023-01-01T11:00:03.527Z,1011.63
2023-01-01T11:05:10.365Z,1011.62
2023-01-01T11:10:04.597Z,1011.69
2023-01-01T11:15:03.422Z,1011.77
2023-01-01T11:20:03.256Z,1011.92
2023-01-01T11:25:03.187Z,1011.9
2023-01-01T11:30:15.173Z,1011.95
2023-01-01T11:35:03.235Z,1011.97
2023-01-01T11:40:03.329Z,1012.01
2023-01-01T11:45:03.302Z,1012.13
2023-01-01T11:50:03.428Z,1012.1
2023-01-01T11:55:03.192Z,1012.08
2023-01-01T12:00:03.298Z,1012.11
2023-01-01T12:05:03.195Z,1012.11
2023-01-01T12:10:03.347Z,1012.22
2023-01-01T12:15:04.151Z,1012.28
2023-01-01T12:20:03.374Z,1012.23
2023-01-01T12:25:03.374Z,1012.24
2023-01-01T12:30:03.410Z,1012.24
2023-01-01T12:35:03.133Z,1012.25
2023-01-01T12:40:06.145Z,1012.2
2023-01-01T12:45:08.183Z,1012.17
2023-01-01T12:50:03.409Z,1012.19
2023-01-01T12:55:03.200Z,1012.17
2023-01-01T13:00:03.424Z,1012.13
2023-01-01T13:05:04.204Z,1012.1
2023-01-01T13:10:03.306Z,1012.09
2023-01-01T13:15:03.286Z,1012.06
2023-01-01T13:20:03.349Z,1012.06
2023-01-01T13:25:06.833Z,1012.08
2023-01-01T13:30:03.316Z,1012.04
2023-01-01T13:35:03.161Z,1012.08
2023-01-01T13:40:03.350Z,1012.04
2023-01-01T13:45:03.219Z,1012.0
2023-01-01T13:50:03.506Z,1012.06
2023-01-01T13:55:03.333Z,1012.06
2023-01-01T14:00:03.448Z,1012.07
2023-01-01T14:05:03.191Z,1012.07
2023-01-01T14:10:03.253Z,1011.92
2023-01-01T14:15:03.212Z,1011.87
2023-01-01T14:20:03.421Z,1011.82
2023-01-01T14:25:09.150Z,1011.71
2023-01-01T14:30:03.326Z,1011.68
2023-01-01T14:35:03.207Z,1011.63
2023-01-01T14:40:03.435Z,1011.6
2023-01-01T14:45:03.324Z,1011.57
2023-01-01T14:50:03.157Z,1011.46
2023-01-01T14:55:03.169Z,1011.41
2023-01-01T15:00:08.347Z,1011.34
2023-01-01T15:05:03.212Z,1011.29
2023-01-01T15:10:03.261Z,1011.23
2023-01-01T15:15:03.285Z,1011.18
2023-01-01T15:20:03.271Z,1011.12
2023-01-01T15:25:03.331Z,1011.09
2023-01-01T15:30:05.924Z,1011.05
2023-01-01T15:35:03.211Z,1011.02
2023-01-01T15:40:03.310Z,1010.89
2023-01-01T15:45:03.192Z,1010.81
2023-01-01T15:50:03.353Z,1010.69
2023-01-01T15:55:03.197Z,1010.71
2023-01-01T16:00:03.430Z,1010.59
2023-01-01T16:05:03.182Z,1010.46
2023-01-01T16:10:03.308Z,1010.41
2023-01-01T16:15:03.191Z,1010.35
2023-01-01T16:20:03.324Z,1010.24
2023-01-01T16:25:03.174Z,1010.21
2023-01-01T16:30:03.336Z,1010.13
2023-01-01T16:35:06.687Z,1010.06
2023-01-01T16:40:03.326Z,1009.9
2023-01-01T16:45:03.331Z,1009.83
2023-01-01T16:50:03.300Z,1009.8
2023-01-01T16:55:03.224Z,1009.81
2023-01-01T17:00:03.353Z,1009.74
2023-01-01T17:05:03.413Z,1009.64
2023-01-01T17:10:03.205Z,1009.5
2023-01-01T17:15:03.237Z,1009.45
2023-01-01T17:20:03.308Z,1009.29
2023-01-01T17:25:03.214Z,1009.17
2023-01-01T17:30:03.428Z,1009.11
2023-01-01T17:35:03.111Z,1009.02
2023-01-01T17:40:03.294Z,1009.03
2023-01-01T17:45:03.154Z,1008.96
2023-01-01T17:50:03.267Z,1008.93
2023-01-01T17:55:03.251Z,1008.88
2023-01-01T18:00:03.383Z,1008.64
2023-01-01T18:05:03.408Z,1008.5
2023-01-01T18:10:03.348Z,1008.52
2023-01-01T18:15:03.230Z,1008.45
2023-01-01T18:20:03.391Z,1008.3
2023-01-01T18:25:03.392Z,1008.27
2023-01-01T18:30:03.389Z,1008.1
2023-01-01T18:35:03.119Z,1008.07
2023-01-01T18:40:03.372Z,1008.0
2023-01-01T18:45:03.119Z,1007.85
2023-01-01T18:50:03.297Z,1007.75
2023-01-01T18:55:03.233Z,1007.59
2023-01-01T19:00:03.439Z,1007.6
2023-01-01T19:05:03.156Z,1007.54
2023-01-01T19:10:03.255Z,1007.46
2023-01-01T19:15:03.229Z,1007.29
2023-01-01T19:20:03.376Z,1007.2
2023-01-01T19:25:03.248Z,1007.03
2023-01-01T19:30:04.442Z,1007.0
2023-01-01T19:35:03.330Z,1006.92
2023-01-01T19:40:03.321Z,1006.84
2023-01-01T19:45:03.445Z,1006.81
2023-01-01T19:50:03.231Z,1006.82
2023-01-01T19:55:04.660Z,1006.69
2023-01-01T20:00:03.251Z,1006.55
2023-01-01T20:05:03.298Z,1006.47
2023-01-01T20:10:03.321Z,1006.38
2023-01-01T20:15:03.200Z,1006.24
2023-01-01T20:20:03.319Z,1006.09
2023-01-01T20:25:03.138Z,1006.06
2023-01-01T20:30:03.357Z,1005.97
2023-01-01T20:35:03.177Z,1005.88
2023-01-01T20:40:03.358Z,1005.79
2023-01-01T20:45:03.214Z,1005.73
2023-01-01T20:50:03.228Z,1005.6
2023-01-01T20:55:03.200Z,1005.51
2023-01-01T21:00:03.349Z,1005.51
2023-01-01T21:05:03.178Z,1005.48
2023-01-01T21:10:03.327Z,1005.44
2023-01-01T21:15:03.206Z,1005.39
2023-01-01T21:20:03.499Z,1005.45
2023-01-01T21:25:24.352Z,1005.44
2023-01-01T21:30:03.299Z,1005.55
2023-01-01T21:35:03.227Z,1005.65
2023-01-01T21:40:03.383Z,1005.78
2023-01-01T21:45:03.165Z,1005.84
2023-01-01T21:50:03.269Z,1005.88
2023-01-01T21:55:03.401Z,1005.92
2023-01-01T22:00:03.392Z,1005.98
2023-01-01T22:05:03.183Z,1006.0
2023-01-01T22:10:03.304Z,1006.08
2023-01-01T22:15:03.311Z,1006.29
2023-01-01T22:20:03.306Z,1006.29
2023-01-01T22:25:03.485Z,1006.31
2023-01-01T22:30:03.281Z,1006.37
2023-01-01T22:35:04.351Z,1006.44
2023-01-01T22:40:03.423Z,1006.48
2023-01-01T22:45:03.344Z,1006.5
2023-01-01T22:50:03.308Z,1006.62
2023-01-01T22:55:03.314Z,1006.67
2023-01-01T23:00:03.340Z,1006.64
2023-01-01T23:05:03.259Z,1006.68
2023-01-01T23:10:03.639Z,1006.7
2023-01-01T23:15:03.216Z,1006.75
2023-01-01T23:20:03.373Z,1006.64
2023-01-01T23:25:03.143Z,1006.63
2023-01-01T23:30:03.467Z,1006.61
2023-01-01T23:35:03.403Z,1006.62
2023-01-01T23:40:03.403Z,1006.62
2023-01-01T23:45:03.273Z,1006.62
2023-01-01T23:50:03.317Z,1006.62
2023-01-01T23:55:03.270Z,1006.69
